createdAt,value
2017-12-27T00:01:47.898Z,9.47
2017-12-27T00:04:21.300Z,8.77
2017-12-27T00:06:55.198Z,9.30
2017-12-27T00:09:29.318Z,8.73
2017-12-27T00:12:02.887Z,6.80
2017-12-27T00:14:36.318Z,9.23
2017-12-27T00:17:10.460Z,7.33
2017-12-27T00:19:43.758Z,9.90
2017-12-27T00:25:24.100Z,8.10
2017-12-27T00:27:58.219Z,8.47
2017-12-27T00:33:33.861Z,5.80
2017-12-27T00:36:01.679Z,6.80
2017-12-27T00:38:29.498Z,7.27
2017-12-27T00:40:57.458Z,7.13
2017-12-27T00:43:25.458Z,7.50
2017-12-27T00:45:53.320Z,8.20
2017-12-27T00:48:21.283Z,7.97
2017-12-27T00:50:49.978Z,7.23
2017-12-27T00:53:17.878Z,8.63
2017-12-27T00:55:46.560Z,6.50
2017-12-27T00:58:14.638Z,8.27
2017-12-27T01:00:42.561Z,6.43
2017-12-27T01:03:10.321Z,6.43
2017-12-27T01:05:38.300Z,8.40
2017-12-27T01:08:06.140Z,6.70
2017-12-27T01:13:06.781Z,6.13
2017-12-27T01:15:36.403Z,8.37
2017-12-27T01:18:04.341Z,6.93
2017-12-27T01:20:32.141Z,7.27
2017-12-27T01:22:59.982Z,7.80
2017-12-27T01:25:27.841Z,6.30
2017-12-27T01:27:56.001Z,7.20
2017-12-27T01:30:23.821Z,6.43
2017-12-27T01:32:51.780Z,5.90
2017-12-27T01:35:19.700Z,8.10
2017-12-27T01:37:47.719Z,7.23
2017-12-27T01:40:15.619Z,6.93
2017-12-27T01:42:43.539Z,6.50
2017-12-27T01:45:11.461Z,7.10
2017-12-27T01:47:39.339Z,6.00
2017-12-27T01:50:07.339Z,6.90
2017-12-27T01:52:35.279Z,6.63
2017-12-27T01:55:03.219Z,12.10
2017-12-27T01:57:31.119Z,8.03
2017-12-27T01:59:59.099Z,7.43
2017-12-27T02:02:27.000Z,7.60
2017-12-27T02:04:55.159Z,7.90
2017-12-27T02:07:23.041Z,8.23
2017-12-27T02:09:51.619Z,8.03
2017-12-27T02:12:19.999Z,6.50
2017-12-27T02:14:47.879Z,8.67
2017-12-27T02:17:16.079Z,6.30
2017-12-27T02:19:44.106Z,6.20
2017-12-27T02:22:11.999Z,5.47
2017-12-27T02:24:40.060Z,8.20
2017-12-27T02:27:07.902Z,7.17
2017-12-27T02:29:36.660Z,6.20
2017-12-27T02:32:04.499Z,7.27
2017-12-27T02:34:32.384Z,7.90
2017-12-27T02:37:00.220Z,9.83
2017-12-27T02:42:29.179Z,11.57
2017-12-27T02:44:57.099Z,9.50
2017-12-27T02:47:25.259Z,10.43
2017-12-27T02:49:53.223Z,7.80
2017-12-27T02:52:21.099Z,9.03
2017-12-27T02:54:48.959Z,11.00
2017-12-27T02:57:16.839Z,9.73
2017-12-27T02:59:44.740Z,9.13
2017-12-27T03:02:12.600Z,9.80
2017-12-27T03:04:40.700Z,9.20
2017-12-27T03:07:08.762Z,7.00
2017-12-27T03:09:37.002Z,6.40
2017-12-27T03:12:04.901Z,8.70
2017-12-27T03:14:32.796Z,8.43
2017-12-27T03:17:00.641Z,9.60
2017-12-27T03:19:28.983Z,6.87
2017-12-27T03:21:56.922Z,8.93
2017-12-27T03:24:24.842Z,8.10
2017-12-27T03:26:52.722Z,10.47
2017-12-27T03:29:20.600Z,9.10
2017-12-27T03:31:48.499Z,10.00
2017-12-27T03:34:16.382Z,8.50
2017-12-27T03:36:44.859Z,6.57
2017-12-27T03:39:12.818Z,8.50
2017-12-27T03:41:40.902Z,7.70
2017-12-27T03:44:08.801Z,7.07
2017-12-27T03:46:37.003Z,7.37
2017-12-27T03:49:04.900Z,6.87
2017-12-27T03:51:32.861Z,6.43
2017-12-27T03:54:00.791Z,7.73
2017-12-27T03:56:28.658Z,8.00
2017-12-27T03:58:56.482Z,7.53
2017-12-27T04:01:24.700Z,6.47
2017-12-27T04:03:52.598Z,6.63
2017-12-27T04:06:20.539Z,7.57
2017-12-27T04:08:48.518Z,7.00
2017-12-27T04:11:17.441Z,6.53
2017-12-27T04:13:45.660Z,7.40
2017-12-27T04:16:15.064Z,7.00
2017-12-27T04:18:42.879Z,6.80
2017-12-27T04:21:10.898Z,6.97
2017-12-27T04:23:38.738Z,6.93
2017-12-27T04:26:06.778Z,10.07
2017-12-27T04:28:34.739Z,7.43
2017-12-27T04:31:02.738Z,6.97
2017-12-27T04:33:30.760Z,7.37
2017-12-27T04:35:58.638Z,12.07
2017-12-27T04:38:27.498Z,6.87
2017-12-27T04:40:55.458Z,8.67
2017-12-27T04:43:23.266Z,6.70
2017-12-27T04:45:51.238Z,7.80
2017-12-27T04:48:20.921Z,7.57
2017-12-27T04:50:48.880Z,6.70
2017-12-27T04:53:16.860Z,8.63
2017-12-27T04:55:45.021Z,8.40
2017-12-27T04:58:13.162Z,8.67
2017-12-27T05:00:41.939Z,8.60
2017-12-27T05:03:09.939Z,6.37
2017-12-27T05:05:37.780Z,6.00
2017-12-27T05:08:05.680Z,6.97
2017-12-27T05:10:34.519Z,7.27
2017-12-27T05:13:02.400Z,7.13
2017-12-27T05:15:30.260Z,6.60
2017-12-27T05:17:58.479Z,6.30
2017-12-27T05:20:26.499Z,6.93
2017-12-27T05:22:54.399Z,7.07
2017-12-27T05:25:22.499Z,8.30
2017-12-27T05:27:51.120Z,7.20
2017-12-27T05:30:18.940Z,6.90
2017-12-27T05:32:46.920Z,6.37
2017-12-27T05:35:14.820Z,10.80
2017-12-27T05:37:42.779Z,6.70
2017-12-27T05:40:10.801Z,6.93
2017-12-27T05:42:38.719Z,7.87
2017-12-27T05:45:06.559Z,9.10
2017-12-27T05:47:34.659Z,6.03
2017-12-27T05:50:02.619Z,8.50
2017-12-27T05:52:32.884Z,12.30
2017-12-27T05:55:00.919Z,8.23
2017-12-27T05:57:28.821Z,8.30
2017-12-27T05:59:56.779Z,7.17
2017-12-27T06:02:25.402Z,5.90
2017-12-27T06:04:53.620Z,8.80
2017-12-27T06:07:21.682Z,5.93
2017-12-27T06:09:49.622Z,6.20
2017-12-27T06:12:18.348Z,7.80
2017-12-27T06:14:46.260Z,10.00
2017-12-27T06:17:17.999Z,6.80
2017-12-27T06:19:45.879Z,8.97
2017-12-27T06:22:13.778Z,8.07
2017-12-27T06:24:41.981Z,6.67
2017-12-27T06:27:09.878Z,7.30
2017-12-27T06:29:37.860Z,7.77
2017-12-27T06:32:05.961Z,5.67
2017-12-27T06:34:34.264Z,8.37
2017-12-27T06:37:02.881Z,6.10
2017-12-27T06:39:33.211Z,6.17
2017-12-27T06:42:01.108Z,8.03
2017-12-27T06:44:29.162Z,7.17
2017-12-27T06:46:57.940Z,6.77
2017-12-27T06:49:26.608Z,7.87
2017-12-27T06:51:54.618Z,7.50
2017-12-27T06:54:23.420Z,7.03
2017-12-27T06:56:51.378Z,6.87
2017-12-27T06:59:20.984Z,7.07
2017-12-27T07:01:48.866Z,8.40
2017-12-27T07:04:16.645Z,7.63
2017-12-27T07:06:45.245Z,6.97
2017-12-27T07:09:13.085Z,6.80
2017-12-27T07:11:40.865Z,8.23
2017-12-27T07:14:08.785Z,8.30
2017-12-27T07:16:36.665Z,7.17
2017-12-27T07:19:04.485Z,8.30
2017-12-27T07:21:32.506Z,7.00
2017-12-27T07:24:00.326Z,6.77
2017-12-27T07:26:28.705Z,6.73
2017-12-27T07:28:56.725Z,6.47
2017-12-27T07:31:24.785Z,7.73
2017-12-27T07:33:52.785Z,9.00
2017-12-27T07:36:20.646Z,6.63
2017-12-27T07:38:48.486Z,6.90
2017-12-27T07:41:17.198Z,6.67
2017-12-27T07:43:45.300Z,6.40
2017-12-27T07:46:13.118Z,6.23
2017-12-27T07:48:42.018Z,6.70
2017-12-27T07:51:10.020Z,6.60
2017-12-27T07:53:38.398Z,9.00
2017-12-27T07:56:07.220Z,7.37
2017-12-27T07:58:36.981Z,7.17
2017-12-27T08:01:04.859Z,6.53
2017-12-27T08:03:32.719Z,8.40
2017-12-27T08:06:00.645Z,6.60
2017-12-27T08:08:28.920Z,5.47
2017-12-27T08:10:57.022Z,8.70
2017-12-27T08:13:24.902Z,8.30
2017-12-27T08:15:52.761Z,6.50
2017-12-27T08:18:20.600Z,7.83
2017-12-27T08:20:48.744Z,8.47
2017-12-27T08:23:16.720Z,8.10
2017-12-27T08:25:44.621Z,7.37
2017-12-27T08:28:12.440Z,6.87
2017-12-27T08:30:40.173Z,10.60
2017-12-27T08:33:07.820Z,8.73
2017-12-27T08:35:35.471Z,8.17
2017-12-27T08:38:03.166Z,6.80
2017-12-27T08:40:30.792Z,6.30
2017-12-27T08:42:59.213Z,7.27
2017-12-27T08:45:27.009Z,6.60
2017-12-27T08:47:54.685Z,7.30
2017-12-27T08:50:22.352Z,7.73
2017-12-27T08:52:50.592Z,7.73
2017-12-27T08:55:19.128Z,9.43
2017-12-27T08:57:46.983Z,6.93
2017-12-27T09:00:16.945Z,10.47
2017-12-27T09:02:44.823Z,9.20
2017-12-27T09:05:12.762Z,7.63
2017-12-27T09:07:40.581Z,9.43
2017-12-27T09:10:08.583Z,7.60
2017-12-27T09:12:36.382Z,7.60
2017-12-27T09:15:04.106Z,8.13
2017-12-27T09:17:32.219Z,6.57
2017-12-27T09:20:00.066Z,7.70
2017-12-27T09:22:27.839Z,7.10
2017-12-27T09:27:27.655Z,7.90
2017-12-27T09:29:55.440Z,8.57
2017-12-27T09:32:23.196Z,7.13
2017-12-27T09:34:50.981Z,6.80
2017-12-27T09:37:18.742Z,7.70
2017-12-27T09:39:46.493Z,7.43
2017-12-27T09:42:14.230Z,6.07
2017-12-27T09:44:41.967Z,6.33
2017-12-27T09:47:10.474Z,7.63
2017-12-27T09:49:38.254Z,6.10
2017-12-27T09:52:06.040Z,5.93
2017-12-27T09:54:33.757Z,6.23
2017-12-27T09:57:01.523Z,5.17
2017-12-27T09:59:29.286Z,4.63
2017-12-27T10:01:57.030Z,4.77
2017-12-27T10:04:24.728Z,5.20
2017-12-27T10:06:52.484Z,5.27
2017-12-27T10:09:20.169Z,4.83
2017-12-27T10:11:47.889Z,4.57
2017-12-27T10:14:15.614Z,4.90
2017-12-27T10:16:43.350Z,4.97
2017-12-27T10:21:42.984Z,5.80
2017-12-27T10:24:10.709Z,5.03
2017-12-27T10:26:39.238Z,10.00
2017-12-27T10:29:06.986Z,14.60
2017-12-27T10:31:34.762Z,16.70
2017-12-27T10:34:02.483Z,6.43
2017-12-27T10:36:30.228Z,7.20
2017-12-27T10:38:57.939Z,7.53
2017-12-27T10:41:25.682Z,8.77
2017-12-27T10:43:53.451Z,7.03
2017-12-27T10:46:21.200Z,5.77
2017-12-27T10:48:48.982Z,8.10
2017-12-27T10:51:16.725Z,6.97
2017-12-27T10:53:44.548Z,9.10
2017-12-27T10:56:13.053Z,6.50
2017-12-27T10:58:40.890Z,8.10
2017-12-27T11:01:08.664Z,12.93
2017-12-27T11:03:36.441Z,9.00
2017-12-27T11:06:04.244Z,8.57
2017-12-27T11:08:32.005Z,7.90
2017-12-27T11:10:59.796Z,7.67
2017-12-27T11:13:27.546Z,8.47
2017-12-27T11:15:55.261Z,7.37
2017-12-27T11:18:22.983Z,9.57
2017-12-27T11:20:50.682Z,7.10
2017-12-27T11:23:19.152Z,6.27
2017-12-27T11:25:46.906Z,7.83
2017-12-27T11:28:14.582Z,7.37
2017-12-27T11:30:42.261Z,7.73
2017-12-27T11:33:09.990Z,8.23
2017-12-27T11:35:37.699Z,9.47
2017-12-27T11:38:05.989Z,8.20
2017-12-27T11:40:33.763Z,7.80
2017-12-27T11:43:01.504Z,8.83
2017-12-27T11:45:29.262Z,7.83
2017-12-27T11:47:57.011Z,8.27
2017-12-27T11:50:24.720Z,8.53
2017-12-27T11:52:53.688Z,8.00
2017-12-27T11:55:21.473Z,8.23
2017-12-27T11:57:49.217Z,7.20
2017-12-27T12:00:16.919Z,8.00
2017-12-27T12:02:44.621Z,7.97
2017-12-27T12:05:12.366Z,8.53
2017-12-27T12:07:40.166Z,8.30
2017-12-27T12:10:07.907Z,8.67
2017-12-27T12:12:35.646Z,7.90
2017-12-27T12:15:03.368Z,8.33
2017-12-27T12:17:31.144Z,7.80
2017-12-27T12:19:58.839Z,9.20
2017-12-27T12:22:26.625Z,8.03
2017-12-27T12:27:26.242Z,6.40
2017-12-27T12:29:53.963Z,9.70
2017-12-27T12:32:21.692Z,8.07
2017-12-27T12:34:49.458Z,8.53
2017-12-27T12:37:18.027Z,7.23
2017-12-27T12:39:45.777Z,7.00
2017-12-27T12:42:13.543Z,6.60
2017-12-27T12:44:41.223Z,7.00
2017-12-27T12:49:40.887Z,7.73
2017-12-27T12:52:08.664Z,7.40
2017-12-27T12:54:36.480Z,6.23
2017-12-27T12:57:04.213Z,5.30
2017-12-27T12:59:32.025Z,5.63
2017-12-27T13:01:59.760Z,6.67
2017-12-27T13:04:27.480Z,7.07
2017-12-27T13:06:55.303Z,6.60
2017-12-27T13:09:23.048Z,6.47
2017-12-27T13:11:50.898Z,5.80
2017-12-27T13:14:18.641Z,6.37
2017-12-27T13:16:46.422Z,6.03
2017-12-27T13:19:14.161Z,6.47
2017-12-27T13:21:41.869Z,4.10
2017-12-27T13:24:09.700Z,4.53
2017-12-27T13:26:38.219Z,3.40
2017-12-27T13:29:06.019Z,4.20
2017-12-27T13:31:33.800Z,3.37
2017-12-27T13:34:01.537Z,4.57
2017-12-27T13:36:29.300Z,3.80
2017-12-27T13:38:57.002Z,3.47
2017-12-27T13:41:24.821Z,2.50
2017-12-27T13:43:52.641Z,3.03
2017-12-27T13:46:20.388Z,3.37
2017-12-27T13:48:48.141Z,3.30
2017-12-27T13:51:16.631Z,3.80
2017-12-27T13:53:44.343Z,2.63
2017-12-27T13:56:12.029Z,3.57
2017-12-27T13:58:39.749Z,3.23
2017-12-27T14:01:07.449Z,3.73
2017-12-27T14:03:35.222Z,3.10
2017-12-27T14:06:02.986Z,4.00
2017-12-27T14:08:30.726Z,3.97
2017-12-27T14:10:58.488Z,4.43
2017-12-27T14:13:26.207Z,5.73
2017-12-27T14:15:53.904Z,3.23
2017-12-27T14:18:21.683Z,2.83
2017-12-27T14:20:49.484Z,2.30
2017-12-27T14:23:17.198Z,3.07
2017-12-27T14:25:45.705Z,2.43
2017-12-27T14:28:13.446Z,2.83
2017-12-27T14:30:41.163Z,2.73
2017-12-27T14:33:09.703Z,2.90
2017-12-27T14:38:09.247Z,2.50
2017-12-27T14:40:36.922Z,2.40
2017-12-27T14:43:04.689Z,2.20
2017-12-27T14:45:32.442Z,2.00
2017-12-27T14:48:00.180Z,2.43
2017-12-27T14:50:27.859Z,5.07
2017-12-27T14:52:55.603Z,2.50
2017-12-27T14:55:23.441Z,2.50
2017-12-27T14:57:51.219Z,3.10
2017-12-27T15:00:25.568Z,2.77
2017-12-27T15:02:54.337Z,3.30
2017-12-27T15:05:22.062Z,3.40
2017-12-27T15:07:49.851Z,5.03
2017-12-27T15:10:17.560Z,3.73
2017-12-27T15:15:17.224Z,4.30
2017-12-27T15:17:45.080Z,3.40
2017-12-27T15:20:12.943Z,3.77
2017-12-27T15:22:40.721Z,3.40
2017-12-27T15:25:08.475Z,3.77
2017-12-27T15:27:36.226Z,3.20
2017-12-27T15:30:04.759Z,4.70
2017-12-27T15:32:32.508Z,5.13
2017-12-27T15:35:00.272Z,4.17
2017-12-27T15:37:28.068Z,5.17
2017-12-27T15:39:55.812Z,4.47
2017-12-27T15:42:25.505Z,4.63
2017-12-27T15:44:53.472Z,4.83
2017-12-27T15:47:21.594Z,5.47
2017-12-27T15:49:50.836Z,4.43
2017-12-27T15:52:18.577Z,5.30
2017-12-27T15:54:47.721Z,4.20
2017-12-27T15:57:15.686Z,6.27
2017-12-27T15:59:43.550Z,4.70
2017-12-27T16:02:13.558Z,6.87
2017-12-27T16:04:43.266Z,5.23
2017-12-27T16:07:11.083Z,5.00
2017-12-27T16:09:42.061Z,8.70
2017-12-27T16:12:09.789Z,5.77
2017-12-27T16:14:37.598Z,6.33
2017-12-27T16:17:05.389Z,6.77
2017-12-27T16:19:33.142Z,7.60
2017-12-27T16:22:00.921Z,6.83
2017-12-27T16:24:28.660Z,6.77
2017-12-27T16:26:56.429Z,6.73
2017-12-27T16:29:24.173Z,8.60
2017-12-27T16:31:52.009Z,11.93
2017-12-27T16:34:19.826Z,19.00
2017-12-27T16:36:47.647Z,18.27
2017-12-27T16:39:15.475Z,9.90
2017-12-27T16:41:43.288Z,9.43
2017-12-27T16:44:11.794Z,8.67
2017-12-27T16:46:39.644Z,8.60
2017-12-27T16:49:07.440Z,7.33
2017-12-27T16:51:35.164Z,9.73
2017-12-27T16:54:02.947Z,8.83
2017-12-27T16:56:30.740Z,7.37
2017-12-27T16:58:58.517Z,10.33
2017-12-27T17:01:26.308Z,8.80
2017-12-27T17:03:54.046Z,8.90
2017-12-27T17:06:21.796Z,9.13
2017-12-27T17:08:50.462Z,7.83
2017-12-27T17:11:18.208Z,9.13
2017-12-27T17:13:46.821Z,9.63
2017-12-27T17:16:14.724Z,8.80
2017-12-27T17:18:42.539Z,7.57
2017-12-27T17:21:10.327Z,8.97
2017-12-27T17:23:38.161Z,11.10
2017-12-27T17:26:05.962Z,9.63
2017-12-27T17:28:33.821Z,10.17
2017-12-27T17:31:01.642Z,8.43
2017-12-27T17:33:29.525Z,9.13
2017-12-27T17:35:57.362Z,9.07
2017-12-27T17:38:25.203Z,9.13
2017-12-27T17:40:53.023Z,11.30
2017-12-27T17:43:20.805Z,9.47
2017-12-27T17:45:48.622Z,10.53
2017-12-27T17:48:16.464Z,10.53
2017-12-27T17:50:44.301Z,11.97
2017-12-27T17:53:12.026Z,10.23
2017-12-27T17:55:39.819Z,9.47
2017-12-27T17:58:07.611Z,9.77
2017-12-27T18:00:35.420Z,10.57
2017-12-27T18:03:03.213Z,9.60
2017-12-27T18:05:30.933Z,11.10
2017-12-27T18:07:58.707Z,10.13
2017-12-27T18:10:26.526Z,10.63
2017-12-27T18:12:54.556Z,9.73
2017-12-27T18:15:22.336Z,9.90
2017-12-27T18:17:50.905Z,9.37
2017-12-27T18:20:18.684Z,12.90
2017-12-27T18:22:46.468Z,10.13
2017-12-27T18:25:14.262Z,9.73
2017-12-27T18:27:42.026Z,8.70
2017-12-27T18:30:09.808Z,8.90
2017-12-27T18:32:37.552Z,11.70
2017-12-27T18:35:05.298Z,10.00
2017-12-27T18:37:33.040Z,9.00
2017-12-27T18:40:00.844Z,9.47
2017-12-27T18:42:28.666Z,9.27
2017-12-27T18:44:56.580Z,8.67
2017-12-27T18:47:24.508Z,9.97
2017-12-27T18:49:52.298Z,10.10
2017-12-27T18:52:20.130Z,11.33
2017-12-27T18:54:47.959Z,9.37
2017-12-27T18:57:16.638Z,9.33
2017-12-27T18:59:44.440Z,7.90
2017-12-27T19:02:12.258Z,8.00
2017-12-27T19:04:40.164Z,8.73
2017-12-27T19:09:39.880Z,10.23
2017-12-27T19:12:07.621Z,11.33
2017-12-27T19:14:35.522Z,8.97
2017-12-27T19:17:03.422Z,9.07
2017-12-27T19:19:31.297Z,9.40
2017-12-27T19:21:59.173Z,8.63
2017-12-27T19:24:27.066Z,8.37
2017-12-27T19:26:55.008Z,9.13
2017-12-27T19:29:22.874Z,10.13
2017-12-27T19:31:50.767Z,8.83
2017-12-27T19:34:18.648Z,9.90
2017-12-27T19:36:46.528Z,9.83
2017-12-27T19:39:14.447Z,9.07
2017-12-27T19:41:43.167Z,8.90
2017-12-27T19:44:11.129Z,9.57
2017-12-27T19:46:39.105Z,9.93
2017-12-27T19:49:06.920Z,11.20
2017-12-27T19:51:34.866Z,9.90
2017-12-27T19:54:02.767Z,16.60
2017-12-27T19:56:30.704Z,10.33
2017-12-27T19:58:58.608Z,11.13
2017-12-27T20:01:26.559Z,14.77
2017-12-27T20:03:54.494Z,13.30
2017-12-27T20:06:22.445Z,10.13
2017-12-27T20:08:50.394Z,10.70
2017-12-27T20:11:18.343Z,13.73
2017-12-27T20:13:46.822Z,12.27
2017-12-27T20:16:14.712Z,10.60
2017-12-27T20:18:42.844Z,10.73
2017-12-27T20:21:10.747Z,13.17
2017-12-27T20:23:39.523Z,9.50
2017-12-27T20:26:08.290Z,9.63
2017-12-27T20:28:37.527Z,10.10
2017-12-27T20:31:05.703Z,10.37
2017-12-27T20:33:34.904Z,10.00
2017-12-27T20:36:02.987Z,10.83
2017-12-27T20:38:31.164Z,10.40
2017-12-27T20:41:00.024Z,10.87
2017-12-27T20:43:29.224Z,11.00
2017-12-27T20:45:57.225Z,11.37
2017-12-27T20:48:25.223Z,8.90
2017-12-27T20:50:54.083Z,10.60
2017-12-27T20:53:22.044Z,9.40
2017-12-27T20:55:49.943Z,9.40
2017-12-27T20:58:17.867Z,10.20
2017-12-27T21:00:45.802Z,9.63
2017-12-27T21:03:13.790Z,11.60
2017-12-27T21:05:41.784Z,10.77
2017-12-27T21:08:09.810Z,10.00
2017-12-27T21:10:37.826Z,9.67
2017-12-27T21:13:05.923Z,9.03
2017-12-27T21:15:34.127Z,10.07
2017-12-27T21:18:02.084Z,10.13
2017-12-27T21:20:30.003Z,11.87
2017-12-27T21:22:58.343Z,9.63
2017-12-27T21:25:26.825Z,11.43
2017-12-27T21:27:55.704Z,10.90
2017-12-27T21:30:24.333Z,9.33
2017-12-27T21:32:52.276Z,9.57
2017-12-27T21:35:20.330Z,9.07
2017-12-27T21:37:48.901Z,9.00
2017-12-27T21:40:17.000Z,9.30
2017-12-27T21:42:44.924Z,10.37
2017-12-27T21:45:12.989Z,8.83
2017-12-27T21:47:47.236Z,9.10
2017-12-27T21:50:15.890Z,8.97
2017-12-27T21:52:44.210Z,10.07
2017-12-27T21:55:12.057Z,7.93
2017-12-27T21:57:40.424Z,11.13
2017-12-27T22:00:13.904Z,9.50
2017-12-27T22:02:42.555Z,12.07
2017-12-27T22:05:11.271Z,13.47
2017-12-27T22:07:39.116Z,10.30
2017-12-27T22:10:06.980Z,10.53
2017-12-27T22:12:35.177Z,10.67
2017-12-27T22:15:04.572Z,10.87
2017-12-27T22:17:32.551Z,11.03
2017-12-27T22:20:00.687Z,12.30
2017-12-27T22:22:28.547Z,12.17
2017-12-27T22:24:56.454Z,14.60
2017-12-27T22:27:25.272Z,12.47
2017-12-27T22:29:53.924Z,11.97
2017-12-27T22:32:22.646Z,12.47
2017-12-27T22:34:50.546Z,14.53
2017-12-27T22:37:18.580Z,15.13
2017-12-27T22:39:46.645Z,13.83
2017-12-27T22:42:15.331Z,14.93
2017-12-27T22:44:43.176Z,14.67
2017-12-27T22:47:11.184Z,13.80
2017-12-27T22:49:39.041Z,13.97
2017-12-27T22:52:07.524Z,13.87
2017-12-27T22:54:36.404Z,12.33
2017-12-27T22:57:04.304Z,11.47
2017-12-27T22:59:32.312Z,13.23
2017-12-27T23:02:00.806Z,11.10
2017-12-27T23:04:30.362Z,13.50
2017-12-27T23:06:58.221Z,12.90
2017-12-27T23:09:25.972Z,12.00
2017-12-27T23:11:53.887Z,14.30
2017-12-27T23:14:21.721Z,11.47
2017-12-27T23:16:49.571Z,11.23
2017-12-27T23:19:17.461Z,10.50
2017-12-27T23:21:45.321Z,13.00
2017-12-27T23:24:13.321Z,12.07
2017-12-27T23:26:41.226Z,11.97
2017-12-27T23:29:09.000Z,12.43
2017-12-27T23:31:36.787Z,11.30
2017-12-27T23:34:04.620Z,12.50
2017-12-27T23:36:32.621Z,12.50
2017-12-27T23:39:00.442Z,12.33
2017-12-27T23:41:28.306Z,12.50
2017-12-27T23:43:56.160Z,10.23
2017-12-27T23:46:24.041Z,12.60
2017-12-27T23:48:51.848Z,12.10
2017-12-27T23:51:20.442Z,10.43
2017-12-27T23:53:48.281Z,10.03
2017-12-27T23:56:16.164Z,11.30
2017-12-27T23:58:43.991Z,11.67
